Weather at Malili Airport [CLOSED]

Public forecast

Using degrees Celsius for public forecast. Weather courtesy of forecast.io.

Closest aviation weather report (METAR) to Malili Airport

Closest report is Mutiara - SIS Al-Jufrie Airport, 125.4 nm (232.2 km) NW. Retrieved UTC (0 seconds ago):

Closest aviation forecast (TAF) to Malili Airport

Closest forecast is Soroako Airport, 16.8 nm (31.2 km) ENE. Retrieved 2022/01/17 06:00 UTC (4 hours ago):

TAF WAWS 170500Z 1706/1718 33006KT 9000 SCT019 TEMPO 1708/1712 5000 TSRA FEW016CB